BIENTÔT MET'MAP
version 2.0 !

Prévue avant fin octobre,
la nouvelle version sera
plus belle, plus complète
et hébergée sur un serveur
3 fois plus puissant...
et toujours gratuite !


Pas compatible ?
Essayez la version Mobile !

SE CONNECTER : | S'inscrire | Disclaimer | Découvrir Orbifly |
Code OACI :

TAF - LFMC Le Luc - 01 Apr 2020 14:17 UTC
Data Sources :     NOAA   


- Altitude de l'aérodrome : 265 ft
- Pas de NOTAMs connus.


LFMC - Le Luc

Dernier METAR connu : 2020/04/01 12:00 LFMC 011200Z AUTO 11012KT 080V140 9999 ////// 13/00 Q1019
PAS DE TAF


MET'MAP, la Météo Aéronautique d'un coup d'oeil ! - Copyright ORBIFLY Décembre 2007

Développement & Programmation : Alexandra Zaïnal
Co-Développement : Marc-Olivier Méhu
Soutien technique & logistique : Manuel Goepfert
Conception & Financement : Baudouin d'Aumeries